Main page
METAR-TAF:

METAR-TAF

Airports :

St Mary's Airport

Isles of Scilly, England

latitude: 49-55N, longitude: 006-18W, elevation: 31 m

Current weather observation

The report was made 1 hour and 51 minutes ago, at 16:50 UTC
Wind 22 kt from the East/Northeast
Temperature 9°C
Humidity 76%
Pressure 1014 hPa
Visibility 10 km or more
Few clouds at a height of 1400 ft
Broken clouds at a height of 2400 ft

METAR: EGHE 191650Z 06022KT 9999 FEW014 BKN024 09/05 Q1014

Time: 18:41 (18:41 UTC)

Forecast

The report was made 4 hours and 39 minutes ago, at 14:02 UTC
Forecast valid from 19 at 15 UTC to 19 at 17 UTC
Wind 23 kt from the East
Visibility 10 km or more
Few clouds at a height of 2000 ft

TAF: EGHE 191402Z 1915/1917 08023KT 9999 FEW020

Weather observations and forecasts of more than 4000 airports (METAR and TAF reports).

The available stations are represented by yellow and red dots on the map.

Hover mouse over dot to see the name of the station.

Then click to see weather observations and forecasts.

To change the map : click on the green buttons with a black cross to zoom in, on the green button with a dash to zoom out, or on the green arrows for adjacent maps.


METAR-TAF: